createdAt,value
2018-10-19T09:27:21.322Z,13.67
2018-10-19T09:29:50.506Z,14.73
2018-10-19T09:32:19.438Z,12.77
2018-10-19T09:34:48.510Z,13.60
2018-10-19T09:37:17.612Z,12.73
2018-10-19T09:39:46.822Z,14.00
2018-10-19T09:42:16.110Z,13.23
2018-10-19T09:44:45.182Z,13.33
2018-10-19T09:47:14.846Z,14.90
2018-10-19T09:49:44.363Z,13.43
2018-10-19T09:52:13.925Z,14.77
2018-10-19T09:54:43.539Z,11.73
2018-10-19T09:57:13.085Z,13.57
2018-10-19T09:59:42.181Z,14.93
2018-10-19T10:02:11.231Z,12.00
2018-10-19T10:04:40.477Z,15.10
2018-10-19T10:07:09.642Z,12.90
2018-10-19T10:09:38.771Z,12.70
2018-10-19T10:12:08.085Z,13.57
2018-10-19T10:14:38.178Z,14.60
2018-10-19T10:17:07.727Z,14.53
2018-10-19T10:19:37.529Z,13.50
2018-10-19T10:22:06.937Z,13.80
2018-10-19T10:24:36.172Z,13.13
2018-10-19T10:27:05.323Z,14.33
2018-10-19T10:29:34.458Z,13.90
2018-10-19T10:32:03.187Z,14.23
2018-10-19T10:34:32.230Z,14.63
2018-10-19T10:37:01.419Z,14.23
2018-10-19T10:39:30.751Z,12.57
2018-10-19T10:42:00.211Z,17.27
2018-10-19T10:44:29.277Z,15.27
2018-10-19T10:46:58.417Z,16.30
2018-10-19T10:49:28.147Z,14.40
2018-10-19T10:51:57.320Z,16.30
2018-10-19T10:54:27.145Z,16.43
2018-10-19T10:56:55.894Z,15.70
2018-10-19T10:59:24.557Z,16.87
2018-10-19T11:01:53.370Z,15.30
2018-10-19T11:04:22.067Z,16.10
2018-10-19T11:06:51.530Z,15.87
2018-10-19T11:09:20.466Z,14.50
2018-10-19T11:11:49.236Z,15.87
2018-10-19T11:14:18.023Z,12.17
2018-10-19T11:16:47.767Z,15.83
2018-10-19T11:19:16.566Z,14.43
2018-10-19T11:21:45.562Z,13.73
2018-10-19T11:24:14.974Z,15.70
2018-10-19T11:26:44.497Z,15.27
2018-10-19T11:29:14.336Z,15.03
2018-10-19T11:31:43.956Z,13.80
2018-10-19T11:34:13.788Z,15.00
2018-10-19T11:36:42.475Z,13.30
2018-10-19T11:39:11.181Z,14.77
2018-10-19T11:41:40.995Z,13.90
2018-10-19T11:44:10.176Z,17.00
2018-10-19T11:46:39.400Z,12.93
2018-10-19T11:49:08.750Z,17.87
2018-10-19T11:51:39.653Z,13.50
2018-10-19T11:54:10.663Z,13.23
2018-10-19T11:56:40.400Z,12.63
2018-10-19T11:59:09.946Z,13.70
2018-10-19T12:01:39.994Z,12.73
2018-10-19T12:04:10.081Z,13.53
2018-10-19T12:06:39.681Z,13.33
2018-10-19T12:09:10.457Z,14.00
2018-10-19T12:11:39.935Z,11.47
2018-10-19T12:14:08.655Z,12.10
2018-10-19T12:16:37.704Z,12.53
2018-10-19T12:19:06.930Z,12.77
2018-10-19T12:21:36.483Z,14.37
2018-10-19T12:24:06.173Z,15.90
2018-10-19T12:26:35.767Z,14.90
2018-10-19T12:29:05.636Z,13.90
2018-10-19T12:31:35.483Z,13.57
2018-10-19T12:34:04.470Z,13.40
2018-10-19T12:36:33.193Z,14.30
2018-10-19T12:39:01.939Z,16.03
2018-10-19T12:41:30.670Z,14.73
2018-10-19T12:43:59.821Z,16.80
2018-10-19T12:46:41.599Z,15.60
2018-10-19T12:49:12.436Z,15.67
2018-10-19T12:51:41.336Z,13.70
2018-10-19T12:54:10.652Z,14.80
2018-10-19T12:56:40.592Z,14.07
2018-10-19T12:59:10.085Z,13.63
2018-10-19T13:01:40.407Z,14.50
2018-10-19T13:04:10.261Z,13.93
2018-10-19T13:06:39.391Z,14.60
2018-10-19T13:09:09.909Z,17.00
2018-10-19T13:11:39.583Z,16.20
2018-10-19T13:14:08.965Z,14.50
2018-10-19T13:16:38.169Z,12.90
2018-10-19T13:19:08.280Z,13.70
2018-10-19T13:21:38.037Z,12.93
2018-10-19T13:24:07.133Z,18.13
2018-10-19T13:26:35.859Z,16.77
2018-10-19T13:29:04.872Z,13.47
2018-10-19T13:31:34.168Z,14.07
2018-10-19T13:34:02.892Z,15.70
2018-10-19T13:36:31.559Z,12.13
2018-10-19T13:39:00.863Z,13.07
2018-10-19T13:41:29.713Z,13.40
2018-10-19T13:43:58.422Z,15.67
2018-10-19T13:46:27.188Z,14.37
2018-10-19T13:48:55.899Z,11.77
2018-10-19T13:51:24.518Z,12.97
2018-10-19T13:53:53.541Z,13.30
2018-10-19T13:56:22.353Z,12.63
2018-10-19T13:58:50.987Z,13.27
2018-10-19T14:01:19.704Z,11.27
2018-10-19T14:03:49.360Z,11.70
2018-10-19T14:06:18.450Z,13.40
2018-10-19T14:08:47.517Z,12.20
2018-10-19T14:11:16.655Z,12.30
2018-10-19T14:13:45.738Z,12.20
2018-10-19T14:16:15.144Z,13.90
2018-10-19T14:18:44.074Z,11.17
2018-10-19T14:21:13.570Z,14.07
2018-10-19T14:23:43.535Z,13.00
2018-10-19T14:26:13.827Z,12.73
2018-10-19T14:28:42.545Z,12.00
2018-10-19T14:31:11.653Z,10.97
2018-10-19T14:33:40.667Z,12.90
2018-10-19T14:36:09.298Z,9.40
2018-10-19T14:38:38.092Z,10.67
2018-10-19T14:41:07.611Z,11.63
2018-10-19T14:43:36.817Z,12.90
2018-10-19T14:46:06.035Z,12.47
2018-10-19T14:48:35.326Z,12.80
2018-10-19T14:51:04.655Z,12.13
2018-10-19T14:53:34.087Z,12.27
2018-10-19T14:56:03.672Z,14.90
2018-10-19T14:58:33.000Z,12.03
2018-10-19T15:01:02.787Z,11.40
2018-10-19T15:03:31.718Z,11.43
2018-10-19T15:06:00.609Z,12.40
2018-10-19T15:08:29.948Z,10.80
2018-10-19T15:10:58.782Z,10.03
2018-10-19T15:13:27.399Z,14.07
2018-10-19T15:15:56.403Z,12.17
2018-10-19T15:18:25.190Z,11.83
2018-10-19T15:20:53.961Z,12.93
2018-10-19T15:23:22.654Z,11.33
2018-10-19T15:25:51.749Z,12.57
2018-10-19T15:28:21.024Z,11.40
2018-10-19T15:30:49.854Z,11.37
2018-10-19T15:33:18.502Z,11.50
2018-10-19T15:35:47.176Z,10.60
2018-10-19T15:38:15.795Z,13.10
2018-10-19T15:40:44.490Z,10.73
2018-10-19T15:43:13.240Z,11.50
2018-10-19T15:45:42.344Z,11.60
2018-10-19T15:48:11.027Z,13.07
2018-10-19T15:50:40.120Z,11.87
2018-10-19T15:53:09.832Z,12.80
2018-10-19T15:55:38.943Z,11.30
2018-10-19T15:58:08.141Z,13.60
2018-10-19T16:00:37.425Z,11.87
2018-10-19T16:03:06.917Z,13.07
2018-10-19T16:05:36.979Z,10.87
2018-10-19T16:08:06.758Z,11.13
2018-10-19T16:10:35.594Z,11.00
2018-10-19T16:13:04.263Z,10.53
2018-10-19T16:15:32.943Z,10.93
2018-10-19T16:18:01.872Z,9.07
2018-10-19T16:20:30.596Z,10.87
2018-10-19T16:22:59.352Z,9.20
2018-10-19T16:25:28.161Z,10.07
2018-10-19T16:27:57.626Z,9.90
2018-10-19T16:30:26.417Z,11.93
2018-10-19T16:32:55.284Z,12.40
2018-10-19T16:35:23.911Z,11.00
2018-10-19T16:37:52.594Z,14.60
2018-10-19T16:40:21.206Z,12.40
2018-10-19T16:42:49.882Z,13.60
2018-10-19T16:45:18.610Z,10.87
2018-10-19T16:47:48.243Z,8.70
2018-10-19T16:50:17.174Z,11.80
2018-10-19T16:52:46.011Z,11.17
2018-10-19T16:55:14.589Z,8.23
2018-10-19T16:57:43.190Z,8.07
2018-10-19T17:00:12.037Z,6.77
2018-10-19T17:02:40.971Z,7.37
2018-10-19T17:05:09.783Z,8.80
2018-10-19T17:07:38.611Z,7.87
2018-10-19T17:10:07.984Z,9.63
2018-10-19T17:12:36.764Z,11.60
2018-10-19T17:15:06.155Z,12.87
2018-10-19T17:17:35.034Z,9.97
2018-10-19T17:20:03.865Z,10.77
2018-10-19T17:22:33.078Z,10.17
2018-10-19T17:25:02.570Z,11.23
2018-10-19T17:27:32.474Z,12.13
2018-10-19T17:30:01.578Z,9.73
2018-10-19T17:32:31.511Z,12.20
2018-10-19T17:35:00.311Z,10.40
2018-10-19T17:37:29.141Z,11.43
2018-10-19T17:39:57.835Z,10.87
2018-10-19T17:42:26.691Z,11.20
2018-10-19T17:44:55.328Z,11.57
2018-10-19T17:47:24.072Z,11.07
2018-10-19T17:49:52.980Z,14.43
2018-10-19T17:52:21.733Z,12.20
2018-10-19T17:54:50.619Z,12.40
2018-10-19T17:57:19.413Z,11.27
2018-10-19T17:59:48.149Z,10.63
2018-10-19T18:02:17.461Z,11.63
2018-10-19T18:04:46.357Z,11.40
2018-10-19T18:07:15.620Z,11.90
2018-10-19T18:09:44.317Z,9.60
2018-10-19T18:12:13.384Z,10.97
2018-10-19T18:14:42.156Z,11.13
2018-10-19T18:17:11.183Z,11.07
2018-10-19T18:19:40.281Z,8.70
2018-10-19T18:22:09.271Z,11.17
2018-10-19T18:24:37.806Z,8.83
2018-10-19T18:27:06.694Z,8.90
2018-10-19T18:29:35.364Z,14.00
2018-10-19T18:32:04.910Z,10.80
2018-10-19T18:34:35.339Z,11.73
2018-10-19T18:37:04.914Z,11.50
2018-10-19T18:39:34.290Z,11.60
2018-10-19T18:42:03.557Z,11.60
2018-10-19T18:44:33.300Z,17.40
2018-10-19T18:47:02.896Z,12.93
2018-10-19T18:49:32.210Z,13.87
2018-10-19T18:52:02.403Z,14.43
2018-10-19T18:54:31.791Z,12.43
2018-10-19T18:57:01.483Z,12.70
2018-10-19T18:59:31.068Z,11.47
2018-10-19T19:02:00.460Z,10.77
2018-10-19T19:04:30.191Z,9.70
2018-10-19T19:06:59.381Z,9.27
2018-10-19T19:09:28.435Z,10.67
2018-10-19T19:11:57.507Z,11.03
2018-10-19T19:14:26.365Z,9.30
2018-10-19T19:16:55.962Z,10.90
2018-10-19T19:19:24.970Z,10.60
2018-10-19T19:21:53.692Z,12.70
2018-10-19T19:24:28.046Z,10.33
2018-10-19T19:26:57.382Z,10.27
2018-10-19T19:29:26.247Z,10.83
2018-10-19T19:31:55.201Z,13.53
2018-10-19T19:34:30.298Z,13.80
2018-10-19T19:36:59.912Z,12.20
2018-10-19T19:39:28.963Z,14.77
2018-10-19T19:42:03.195Z,16.97
2018-10-19T19:44:32.366Z,14.67
2018-10-19T19:47:02.129Z,11.87
2018-10-19T19:49:36.819Z,12.47
2018-10-19T19:52:06.901Z,12.67
2018-10-19T19:54:36.645Z,12.30
2018-10-19T19:57:06.604Z,11.97
2018-10-19T19:59:36.145Z,13.20
2018-10-19T20:02:06.465Z,13.67
2018-10-19T20:04:36.552Z,12.80
2018-10-19T20:07:06.175Z,11.30
2018-10-19T20:09:35.702Z,12.67
2018-10-19T20:12:05.127Z,13.50
2018-10-19T20:14:34.393Z,12.50
2018-10-19T20:17:03.460Z,12.63
2018-10-19T20:19:32.089Z,11.60
2018-10-19T20:22:00.744Z,11.07
2018-10-19T20:24:29.667Z,11.33
2018-10-19T20:26:58.410Z,10.33
2018-10-19T20:29:27.091Z,13.07
2018-10-19T20:31:56.273Z,13.30
2018-10-19T20:34:25.076Z,14.27
2018-10-19T20:36:53.804Z,13.00
2018-10-19T20:39:22.942Z,14.73
2018-10-19T20:41:52.110Z,12.90
2018-10-19T20:44:20.893Z,15.13
2018-10-19T20:46:50.265Z,14.80
2018-10-19T20:49:19.977Z,13.07
2018-10-19T20:51:49.843Z,14.30
2018-10-19T20:54:19.690Z,13.53
2018-10-19T20:56:49.690Z,10.70
2018-10-19T20:59:18.316Z,11.57
2018-10-19T21:01:46.946Z,9.27
2018-10-19T21:04:15.731Z,11.43
2018-10-19T21:06:44.397Z,11.60
2018-10-19T21:09:13.069Z,12.17
2018-10-19T21:11:41.713Z,12.20
2018-10-19T21:14:10.457Z,11.77
2018-10-19T21:16:39.170Z,10.83
2018-10-19T21:19:08.292Z,10.40
2018-10-19T21:21:37.522Z,11.60
2018-10-19T21:24:07.295Z,10.23
2018-10-19T21:26:36.646Z,11.60
2018-10-19T21:29:05.709Z,11.50
2018-10-19T21:31:35.938Z,13.67
2018-10-19T21:34:05.730Z,13.23
2018-10-19T21:36:35.317Z,13.20
2018-10-19T21:39:04.658Z,12.27
2018-10-19T21:41:34.532Z,10.83
2018-10-19T21:44:03.422Z,11.57
2018-10-19T21:46:32.249Z,10.43
2018-10-19T21:49:01.298Z,13.00
2018-10-19T21:51:30.228Z,12.17
2018-10-19T21:53:59.567Z,13.80
2018-10-19T21:56:28.894Z,13.57
2018-10-19T21:58:58.087Z,15.17
2018-10-19T22:01:27.725Z,10.87
2018-10-19T22:03:57.277Z,11.00
2018-10-19T22:06:27.146Z,10.87
2018-10-19T22:08:56.564Z,9.67
2018-10-19T22:11:25.327Z,11.50
2018-10-19T22:13:54.173Z,8.70
2018-10-19T22:16:23.338Z,11.20
2018-10-19T22:18:52.102Z,9.60
2018-10-19T22:21:21.272Z,10.27
2018-10-19T22:23:50.188Z,10.67
2018-10-19T22:26:18.863Z,10.40
2018-10-19T22:28:47.457Z,10.77
2018-10-19T22:31:16.138Z,10.80
2018-10-19T22:33:45.077Z,10.20
2018-10-19T22:36:13.725Z,10.00
2018-10-19T22:38:42.501Z,10.10
2018-10-19T22:41:11.385Z,10.73
2018-10-19T22:43:39.940Z,10.60
2018-10-19T22:46:08.679Z,11.67
2018-10-19T22:48:37.339Z,10.67
2018-10-19T22:51:05.960Z,12.97
2018-10-19T22:53:34.706Z,10.00
2018-10-19T22:56:03.315Z,11.83
2018-10-19T22:58:31.921Z,12.03
2018-10-19T23:01:00.981Z,10.07
2018-10-19T23:03:29.840Z,9.97
2018-10-19T23:05:58.565Z,11.33
2018-10-19T23:08:27.248Z,10.20
2018-10-19T23:10:56.374Z,12.00
2018-10-19T23:13:25.187Z,11.43
2018-10-19T23:15:54.189Z,10.97
2018-10-19T23:18:22.876Z,10.90
2018-10-19T23:20:51.483Z,10.00
2018-10-19T23:23:20.162Z,10.07
2018-10-19T23:25:48.959Z,9.70
2018-10-19T23:28:17.527Z,9.87
2018-10-19T23:30:46.735Z,10.43
2018-10-19T23:33:15.302Z,9.90
2018-10-19T23:35:43.900Z,10.83
2018-10-19T23:38:12.563Z,10.67
2018-10-19T23:40:41.861Z,10.40
2018-10-19T23:43:10.934Z,10.53
2018-10-19T23:45:39.585Z,10.67
2018-10-19T23:48:08.590Z,11.60
2018-10-19T23:50:38.143Z,13.00
2018-10-19T23:53:07.718Z,11.30
2018-10-19T23:55:37.108Z,11.83
2018-10-19T23:58:06.943Z,12.80
